Time;durP1;ratioP1;P1;durP2;ratioP2;P2;SDS_P1;SDS_P2;PMS_P1;PMS_P2;Temp;Humidity;BMP_temperature;BMP_pressure;BME280_temperature;BME280_humidity;BME280_pressure;Samples;Min_cycle;Max_cycle;Signal;HPM_P1;HPM_P2
2022/12/21 00:14:46;;;;;;;11.40;8.15;;;;;;;0.44;74.19;101929.09;1819823;77;20978;-84
2022/12/21 00:17:13;;;;;;;10.32;7.47;;;;;;;0.49;74.21;101928.70;1822634;77;21025;-83
2022/12/21 00:19:40;;;;;;;10.45;7.72;;;;;;;0.57;74.16;101924.84;1816642;77;20962;-85
2022/12/21 00:22:07;;;;;;;15.38;8.53;;;;;;;0.60;74.09;101902.89;1828647;77;21852;-84
2022/12/21 00:24:33;;;;;;;10.00;7.22;;;;;;;0.64;73.93;101899.47;1805782;77;20943;-83
2022/12/21 00:27:00;;;;;;;11.48;7.97;;;;;;;0.64;73.83;101899.47;1812880;77;20994;-82
2022/12/21 00:29:28;;;;;;;10.80;7.65;;;;;;;0.63;73.83;101904.65;1815229;77;20888;-83
2022/12/21 00:31:55;;;;;;;12.05;8.33;;;;;;;0.63;73.91;101891.73;1807322;77;21049;-83
2022/12/21 00:34:21;;;;;;;12.13;8.13;;;;;;;0.62;73.98;101886.98;1804321;77;21058;-83
2022/12/21 00:36:48;;;;;;;10.63;8.00;;;;;;;0.66;74.05;101882.27;1810293;77;21074;-84
2022/12/21 00:39:16;;;;;;;10.55;7.55;;;;;;;0.67;74.02;101881.42;1818331;77;20883;-83
2022/12/21 00:41:45;;;;;;;11.12;7.85;;;;;;;0.70;74.01;101867.66;1817582;77;20978;-83
2022/12/21 00:44:13;;;;;;;12.63;7.70;;;;;;;0.69;73.91;101864.22;1817429;77;21073;-83
2022/12/21 00:46:40;;;;;;;10.38;7.87;;;;;;;0.66;73.85;101860.31;1816612;77;21202;-83
2022/12/21 00:49:07;;;;;;;8.33;6.40;;;;;;;0.64;74.03;101856.02;1816138;77;21085;-83
2022/12/21 00:51:35;;;;;;;10.32;7.35;;;;;;;0.64;74.11;101857.31;1817068;77;20931;-84
2022/12/21 00:54:01;;;;;;;9.38;6.97;;;;;;;0.60;74.18;101855.14;1809027;77;20908;-83
2022/12/21 00:56:28;;;;;;;9.05;6.70;;;;;;;0.59;74.27;101849.12;1826666;77;20868;-84
2022/12/21 00:58:55;;;;;;;11.33;6.95;;;;;;;0.59;74.37;101842.67;1809877;77;21099;-83
2022/12/21 01:01:30;;;;;;;9.88;7.05;;;;;;;0.61;74.39;101835.80;1818181;77;20975;-83
2022/12/21 01:03:57;;;;;;;8.70;6.85;;;;;;;0.61;74.43;101833.66;1825587;77;20873;-83
2022/12/21 01:06:30;;;;;;;10.53;7.10;;;;;;;0.61;74.49;101826.77;1820625;77;20911;-84
2022/12/21 01:08:56;;;;;;;10.32;6.62;;;;;;;0.60;74.66;101821.19;1814075;77;21010;-84
2022/12/21 01:11:25;;;;;;;8.73;6.92;;;;;;;0.59;74.73;101819.45;1814743;77;21167;-86
2022/12/21 01:13:52;;;;;;;10.93;6.75;;;;;;;0.58;74.94;101813.02;1807247;76;20891;-82
2022/12/21 01:16:23;;;;;;;7.45;5.90;;;;;;;0.59;74.95;101796.22;1816106;77;20892;-84
2022/12/21 01:18:50;;;;;;;8.48;6.97;;;;;;;0.57;75.05;101802.23;1814910;77;20941;-83
2022/12/21 01:21:21;;;;;;;8.25;5.83;;;;;;;0.57;75.08;101799.22;1810396;77;20950;-82
2022/12/21 01:23:52;;;;;;;9.25;6.30;;;;;;;0.57;75.12;101795.79;1820578;77;21082;-83
2022/12/21 01:26:16;;;;;;;10.98;7.22;;;;;;;0.58;75.15;101793.66;1813346;77;21085;-84
2022/12/21 01:28:43;;;;;;;8.85;6.45;;;;;;;0.57;75.22;101794.06;1822005;77;20864;-84
2022/12/21 01:31:10;;;;;;;8.70;6.72;;;;;;;0.56;75.25;101797.52;1813030;76;20903;-83
2022/12/21 01:33:37;;;;;;;8.25;5.97;;;;;;;0.55;75.28;101793.20;1806994;76;20931;-82
2022/12/21 01:36:10;;;;;;;9.20;5.72;;;;;;;0.54;75.29;101790.64;1820958;76;21084;-84
2022/12/21 01:38:41;;;;;;;9.03;6.50;;;;;;;0.55;75.36;101788.47;1810372;76;21034;-84
2022/12/21 01:41:06;;;;;;;8.83;5.90;;;;;;;0.54;75.36;101783.75;1810698;77;20971;-81
2022/12/21 01:43:55;;;;;;;10.80;7.25;;;;;;;0.56;75.38;101783.32;1808733;77;21014;-83
2022/12/21 01:46:43;;;;;;;7.78;5.97;;;;;;;0.58;75.46;101792.37;1822714;77;21002;-84
2022/12/21 01:49:25;;;;;;;9.73;6.78;;;;;;;0.64;75.41;101790.20;1815163;77;21758;-83
2022/12/21 01:52:00;;;;;;;7.60;6.55;;;;;;;0.66;75.31;101785.46;1785746;77;20989;-83
2022/12/21 01:54:34;;;;;;;9.43;7.10;;;;;;;0.70;75.25;101789.77;1804565;77;20955;-84
2022/12/21 01:57:02;;;;;;;7.42;5.97;;;;;;;0.76;75.14;101780.73;1815092;77;20908;-83
2022/12/21 01:59:36;;;;;;;9.18;6.05;;;;;;;0.79;75.01;101786.33;1828288;77;20996;-83
2022/12/21 02:02:09;;;;;;;9.33;6.80;;;;;;;0.85;74.79;101769.98;1818040;77;21290;-83
2022/12/21 02:04:38;;;;;;;;;;;;;;;0.85;74.60;101766.11;1825014;77;20868;-84
2022/12/21 02:07:04;;;;;;;7.40;6.12;;;;;;;0.84;74.43;101754.89;1820116;77;20076;-84
2022/12/21 02:09:33;;;;;;;9.55;6.47;;;;;;;0.80;74.44;101759.63;1811978;77;20844;-83
2022/12/21 02:12:03;;;;;;;10.15;7.45;;;;;;;0.79;74.46;101757.92;1815356;77;21022;-84
2022/12/21 02:14:32;;;;;;;10.68;7.58;;;;;;;0.79;74.52;101746.30;1819759;77;21092;-83
2022/12/21 02:17:43;;;;;;;9.78;7.60;;;;;;;0.79;74.62;101747.16;1806172;77;21134;-83
2022/12/21 02:20:47;;;;;;;7.25;6.05;;;;;;;0.83;74.69;101745.00;1818606;77;20928;-82
2022/12/21 02:23:43;;;;;;;10.05;6.72;;;;;;;0.88;74.71;101742.84;1795575;77;21424;-83
2022/12/21 02:26:42;;;;;;;8.40;6.25;;;;;;;0.89;74.69;101745.44;1811419;77;20954;-81
2022/12/21 02:29:23;;;;;;;8.63;6.03;;;;;;;0.93;74.72;101740.67;1797176;77;22431;-83
2022/12/21 02:32:27;;;;;;;12.13;6.95;;;;;;;0.93;74.72;101740.67;1793817;77;20878;-83
2022/12/21 02:35:29;;;;;;;8.90;6.25;;;;;;;0.92;74.85;101735.09;1812870;77;21538;-82
2022/12/21 02:38:39;;;;;;;9.00;5.37;;;;;;;0.93;74.94;101737.23;1805551;77;21543;-84
2022/12/21 02:41:33;;;;;;;9.70;6.10;;;;;;;0.94;75.05;101734.66;1821373;77;20975;-81
2022/12/21 02:44:28;;;;;;;8.30;6.87;;;;;;;1.00;75.08;101733.77;1807976;77;21138;-82
2022/12/21 02:47:31;;;;;;;9.90;5.83;;;;;;;1.04;75.16;101732.91;1804573;78;24877;-83
2022/12/21 02:50:12;;;;;;;7.75;5.60;;;;;;;1.05;75.15;101728.18;1812025;77;20970;-83
2022/12/21 02:52:44;;;;;;;9.93;6.62;;;;;;;1.08;75.32;101733.33;1816617;77;20896;-84
2022/12/21 02:55:13;;;;;;;7.35;6.12;;;;;;;1.10;75.26;101728.16;1808553;77;20943;-82
2022/12/21 02:57:42;;;;;;;11.20;6.87;;;;;;;1.12;75.30;101723.41;1810455;77;21157;-83
2022/12/21 03:00:17;;;;;;;10.18;6.60;;;;;;;1.15;75.30;101727.71;1794260;78;20848;-83
2022/12/21 03:06:23;;;;;;;15.48;10.03;;;;;;;1.17;75.28;101713.06;1804555;78;21417;-82
2022/12/21 03:09:30;;;;;;;9.70;6.17;;;;;;;1.17;75.37;101707.46;1821145;77;20930;-83
2022/12/21 03:12:05;;;;;;;7.92;6.00;;;;;;;1.22;75.33;101699.28;1806120;78;21198;-82
2022/12/21 03:14:43;;;;;;;10.80;6.08;;;;;;;1.23;75.33;101693.67;1804749;77;21610;-84
2022/12/21 03:17:19;;;;;;;8.58;6.08;;;;;;;1.28;75.34;101688.05;1808479;77;21011;-84
2022/12/21 03:20:06;;;;;;;9.08;6.12;;;;;;;1.31;75.38;101682.00;1811374;77;22872;-83
2022/12/21 03:22:56;;;;;;;9.23;6.45;;;;;;;1.32;75.29;101678.56;1811428;77;20950;-84
2022/12/21 03:25:44;;;;;;;8.20;6.40;;;;;;;1.28;75.30;101669.95;1816991;77;21107;-82
2022/12/21 03:28:14;;;;;;;13.28;7.92;;;;;;;1.22;75.50;101669.98;1814285;77;21420;-83
2022/12/21 03:30:43;;;;;;;10.55;6.92;;;;;;;1.21;75.70;101674.30;1823080;77;20991;-82
2022/12/21 03:33:14;;;;;;;7.58;5.92;;;;;;;1.20;75.88;101677.75;1822896;77;21516;-83
2022/12/21 03:35:52;;;;;;;9.03;6.58;;;;;;;1.20;75.92;101676.47;1813216;77;20860;-83
2022/12/21 03:38:35;;;;;;;8.93;6.42;;;;;;;1.18;76.10;101669.16;1813566;77;21852;-83
2022/12/21 03:41:03;;;;;;;9.90;6.72;;;;;;;1.21;76.27;101667.83;1822592;77;21043;-82
2022/12/21 03:43:34;;;;;;;8.58;6.70;;;;;;;1.21;76.54;101670.86;1797353;78;20928;-85
2022/12/21 03:46:15;;;;;;;7.72;5.85;;;;;;;1.22;76.64;101654.48;1817402;77;20931;-85
2022/12/21 03:48:50;;;;;;;7.83;6.10;;;;;;;1.19;76.87;101644.17;1810174;77;20958;-84
2022/12/21 03:51:22;;;;;;;11.88;6.67;;;;;;;1.11;77.17;101630.02;1813510;77;21161;-84
2022/12/21 03:54:09;;;;;;;8.08;6.00;;;;;;;1.10;77.51;101642.92;1810621;77;20971;-84
2022/12/21 03:56:37;;;;;;;10.13;6.53;;;;;;;1.07;77.88;101651.95;1806760;77;21099;-83
2022/12/21 03:59:04;;;;;;;11.40;6.15;;;;;;;1.06;78.16;101642.06;1807449;78;20982;-83
2022/12/21 04:02:01;;;;;;;8.73;6.33;;;;;;;1.06;78.43;101644.65;1820303;77;20986;-83
2022/12/21 04:04:59;;;;;;;11.45;8.15;;;;;;;1.04;78.72;101638.62;1827391;77;21964;-82
2022/12/21 04:07:26;;;;;;;9.78;6.67;;;;;;;1.04;78.99;101652.83;1818058;77;20868;-84
2022/12/21 04:10:12;;;;;;;8.90;6.08;;;;;;;1.12;79.06;101660.13;1808771;78;21453;-85
2022/12/21 04:12:40;;;;;;;13.13;8.00;;;;;;;1.21;78.77;101665.69;1813198;77;20932;-84
2022/12/21 09:23:51;;;;;;;13.78;8.38;;;;;;;4.01;71.45;101633.87;1819315;77;20847;-83
2022/12/21 09:26:18;;;;;;;10.08;7.72;;;;;;;4.03;71.04;101631.26;1816172;78;20966;-88
2022/12/21 09:28:45;;;;;;;13.38;8.23;;;;;;;4.02;70.84;101626.94;1789710;78;20918;-83
2022/12/21 09:31:17;;;;;;;12.25;8.70;;;;;;;3.99;70.77;101625.25;1815925;78;20906;-85
2022/12/21 09:33:44;;;;;;;11.05;7.47;;;;;;;3.93;70.70;101613.67;1812517;78;21245;-84
2022/12/21 09:36:11;;;;;;;23.52;12.35;;;;;;;3.87;70.73;101612.49;1812790;78;20808;-86
2022/12/21 09:38:38;;;;;;;13.18;8.48;;;;;;;3.82;70.82;101603.45;1812913;78;20946;-85
2022/12/21 09:41:10;;;;;;;14.05;9.05;;;;;;;3.81;71.03;101605.65;1813819;78;21617;-86
2022/12/21 09:44:18;;;;;;;12.00;8.60;;;;;;;3.83;71.10;101596.11;1812449;78;20876;-86
2022/12/21 09:46:45;;;;;;;12.28;8.15;;;;;;;3.84;70.95;101593.91;1787530;78;21251;-85
2022/12/21 09:49:17;;;;;;;8.68;6.92;;;;;;;3.83;70.66;101588.77;1814465;78;20840;-84
2022/12/21 09:51:53;;;;;;;12.68;7.90;;;;;;;3.88;70.79;101588.24;1820007;78;20899;-86
2022/12/21 09:54:39;;;;;;;12.50;8.45;;;;;;;3.94;71.02;101589.45;1813596;78;20931;-85
2022/12/21 09:57:06;;;;;;;19.23;9.83;;;;;;;4.02;71.05;101574.58;1816907;78;20966;-85
2022/12/21 09:59:34;;;;;;;11.95;8.40;;;;;;;4.09;70.62;101578.80;1814136;78;21140;-85
2022/12/21 10:02:27;;;;;;;11.35;8.10;;;;;;;4.13;70.38;101574.39;1762931;78;20868;-84
2022/12/21 10:05:31;;;;;;;12.82;8.43;;;;;;;4.17;70.30;101585.14;1811062;78;20868;-85
2022/12/21 10:08:23;;;;;;;12.58;8.38;;;;;;;4.21;70.19;101585.51;1812313;78;20982;-85
2022/12/21 10:11:18;;;;;;;13.80;8.20;;;;;;;4.22;70.27;101592.39;1808366;78;20907;-85
2022/12/21 10:13:56;;;;;;;12.20;8.50;;;;;;;4.19;69.95;101601.55;1805777;79;22295;-86
2022/12/21 10:16:57;;;;;;;15.18;9.20;;;;;;;4.13;69.87;101606.84;1818084;78;21053;-86
2022/12/21 10:19:57;;;;;;;18.60;10.58;;;;;;;4.10;70.20;101606.45;1814600;78;20896;-83
2022/12/21 10:22:32;;;;;;;12.18;7.70;;;;;;;4.09;70.35;101604.77;1722019;82;21391;-82
2022/12/21 10:25:04;;;;;;;11.78;8.38;;;;;;;4.17;70.42;101603.31;1718948;82;21082;-84
2022/12/21 10:27:43;;;;;;;25.27;14.90;;;;;;;4.22;70.40;101600.19;1720847;82;22780;-87
2022/12/21 10:30:14;;;;;;;10.30;7.33;;;;;;;4.28;70.40;101607.02;1722630;83;21380;-86
2022/12/21 10:32:44;;;;;;;13.32;8.08;;;;;;;4.35;70.29;101598.23;1724019;82;20906;-87
2022/12/21 10:35:23;;;;;;;14.07;8.73;;;;;;;4.41;69.78;101601.17;1716169;82;20996;-85
2022/12/21 10:37:52;;;;;;;11.65;8.08;;;;;;;4.44;69.37;101591.56;1718820;82;20932;-84
2022/12/21 10:40:25;;;;;;;13.88;8.58;;;;;;;4.45;69.08;101590.70;1720768;82;20927;-85
2022/12/21 10:42:52;;;;;;;14.87;9.80;;;;;;;4.46;69.02;101576.81;1704861;82;20948;-86
2022/12/21 10:45:22;;;;;;;14.23;8.93;;;;;;;4.50;69.10;101571.12;1721721;82;20967;-83
2022/12/21 10:47:49;;;;;;;67.45;46.53;;;;;;;4.53;68.99;101561.96;1719208;82;20868;-87
2022/12/21 10:50:31;;;;;;;14.78;10.90;;;;;;;4.53;68.82;101560.21;1721205;81;20999;-85
2022/12/21 10:52:59;;;;;;;16.95;11.68;;;;;;;4.55;68.72;101561.05;1737162;79;21308;-85
2022/12/21 10:55:34;;;;;;;15.08;10.03;;;;;;;4.56;68.59;101545.88;1806987;78;21437;-85
2022/12/21 10:58:16;;;;;;;16.73;10.68;;;;;;;4.54;68.65;101543.77;1778678;80;21021;-86
2022/12/21 11:00:53;;;;;;;15.45;8.83;;;;;;;4.52;68.71;101540.78;1814185;78;21010;-85
2022/12/21 11:03:37;;;;;;;11.75;8.43;;;;;;;4.48;68.71;101545.17;1797132;78;20946;-84
2022/12/21 11:06:16;;;;;;;16.67;8.63;;;;;;;4.46;68.77;101547.39;1812836;78;21764;-83
2022/12/21 11:08:48;;;;;;;14.90;9.00;;;;;;;4.45;68.96;101555.63;1813221;78;20903;-86
2022/12/21 11:11:34;;;;;;;13.70;8.73;;;;;;;4.47;69.06;101559.06;1811639;78;21387;-88
2022/12/21 11:14:03;;;;;;;12.23;8.75;;;;;;;4.51;69.06;101556.82;1781463;78;20958;-86
2022/12/21 11:16:31;;;;;;;11.85;8.60;;;;;;;4.54;69.04;101559.80;1811166;78;21520;-88
2022/12/21 11:19:01;;;;;;;13.58;8.80;;;;;;;4.56;69.22;101561.92;1809845;78;20835;-85
2022/12/21 11:21:40;;;;;;;13.40;8.05;;;;;;;4.59;69.16;101559.25;1820297;77;20890;-87
2022/12/21 11:24:18;;;;;;;16.15;8.65;;;;;;;4.66;69.05;101557.39;1816213;78;20887;-87
2022/12/21 11:26:51;;;;;;;13.00;9.38;;;;;;;4.72;68.83;101559.87;1803686;78;21069;-87
2022/12/21 11:29:32;;;;;;;14.70;9.08;;;;;;;4.72;68.45;101561.16;1815854;78;20878;-86
2022/12/21 11:32:05;;;;;;;11.22;7.90;;;;;;;4.63;68.39;101560.06;1821097;78;21138;-85
2022/12/21 11:34:57;;;;;;;12.65;9.00;;;;;;;4.54;68.62;101559.34;1815224;78;20867;-85
2022/12/21 11:37:44;;;;;;;10.72;7.72;;;;;;;4.49;68.62;101560.30;1813622;78;20907;-87
2022/12/21 11:40:20;;;;;;;24.25;16.32;;;;;;;4.38;68.88;101561.84;1806409;78;20926;-88
2022/12/21 11:43:01;;;;;;;19.85;11.78;;;;;;;4.31;69.19;101557.62;1809311;78;20989;-84
2022/12/21 11:45:55;;;;;;;20.50;11.90;;;;;;;4.25;69.41;101546.08;1812269;78;21101;-86
2022/12/21 11:49:02;;;;;;;25.12;14.47;;;;;;;4.22;69.73;101553.45;1814722;78;21120;-85
2022/12/21 11:51:52;;;;;;;20.72;11.97;;;;;;;4.20;69.79;101549.18;1808770;78;20923;-87
2022/12/21 11:54:36;;;;;;;13.98;8.73;;;;;;;4.20;70.01;101547.88;1809670;78;20875;-88
2022/12/21 11:57:50;;;;;;;22.53;12.27;;;;;;;4.25;70.14;101555.16;1802425;78;21504;-88
2022/12/21 12:00:19;;;;;;;18.90;10.20;;;;;;;4.27;70.34;101551.65;1808867;77;21222;-87
2022/12/21 12:03:30;;;;;;;15.85;10.48;;;;;;;4.31;70.14;101551.13;1811965;78;20927;-86
2022/12/21 12:06:30;;;;;;;19.25;10.48;;;;;;;4.34;69.97;101544.60;1812331;79;21486;-86
2022/12/21 12:09:30;;;;;;;18.60;9.80;;;;;;;4.39;69.78;101551.00;1810642;78;20979;-85
2022/12/21 12:12:25;;;;;;;18.45;12.53;;;;;;;4.41;69.55;101555.73;1811653;78;20903;-87
2022/12/21 12:15:09;;;;;;;20.02;12.23;;;;;;;4.41;69.41;101551.83;1785712;78;21207;-86
2022/12/21 12:17:51;;;;;;;15.30;9.95;;;;;;;4.38;69.20;101555.77;1768584;80;21011;-85
2022/12/21 12:20:34;;;;;;;13.28;8.50;;;;;;;4.35;68.94;101554.94;1815915;79;20820;-85
2022/12/21 12:23:33;;;;;;;14.45;8.30;;;;;;;4.30;68.89;101550.28;1816498;78;20928;-89
2022/12/21 12:26:20;;;;;;;16.27;9.88;;;;;;;4.23;68.93;101543.95;1815670;78;20950;-86
2022/12/21 12:29:17;;;;;;;17.75;10.82;;;;;;;4.15;69.07;101534.99;1806050;78;21523;-89
2022/12/21 12:32:07;;;;;;;17.07;10.08;;;;;;;4.08;69.13;101534.70;1810041;78;21069;-87
2022/12/21 12:35:03;;;;;;;21.42;13.55;;;;;;;4.07;69.30;101537.74;1771944;80;20919;-85
2022/12/21 12:37:42;;;;;;;14.30;9.23;;;;;;;4.07;69.48;101532.55;1741406;81;20959;-86
2022/12/21 12:40:40;;;;;;;16.60;11.25;;;;;;;4.09;69.82;101535.98;1802825;78;20887;-86
2022/12/21 12:43:27;;;;;;;16.45;10.40;;;;;;;4.17;70.18;101530.62;1773473;79;21057;-85
2022/12/21 12:46:11;;;;;;;17.10;10.90;;;;;;;4.32;69.90;101534.23;1743543;80;21487;-85
2022/12/21 12:49:06;;;;;;;21.70;12.95;;;;;;;4.45;69.67;101537.45;1742942;81;20931;-87
2022/12/21 12:52:06;;;;;;;14.15;10.15;;;;;;;4.57;69.10;101533.30;1742814;81;21524;-85
2022/12/21 12:55:05;;;;;;;17.02;12.05;;;;;;;4.66;68.72;101534.85;1765983;79;20989;-85
2022/12/21 12:57:52;;;;;;;19.90;11.55;;;;;;;4.69;68.53;101530.03;1766290;80;21118;-86
2022/12/21 13:00:18;;;;;;;14.78;10.05;;;;;;;4.63;68.32;101529.73;1767577;80;20900;-87
2022/12/21 13:02:56;;;;;;;17.35;11.08;;;;;;;4.56;68.55;101532.05;1739105;80;20909;-87
2022/12/21 13:05:59;;;;;;;17.90;12.50;;;;;;;4.51;68.75;101532.14;1759891;79;20891;-86
2022/12/21 13:08:46;;;;;;;13.05;8.63;;;;;;;4.50;68.90;101530.41;1768499;79;20893;-85
2022/12/21 13:11:36;;;;;;;16.85;11.53;;;;;;;4.46;68.99;101530.52;1743161;79;20998;-87
2022/12/21 13:14:20;;;;;;;12.03;9.20;;;;;;;4.40;69.12;101523.69;1782087;77;20891;-84
2022/12/21 13:16:55;;;;;;;16.57;10.00;;;;;;;4.31;69.30;101522.16;1817504;76;20934;-86
2022/12/21 13:19:22;;;;;;;13.58;8.20;;;;;;;4.22;69.64;101520.16;1814146;75;20993;-87
2022/12/21 13:21:50;;;;;;;17.75;9.15;;;;;;;4.14;69.96;101522.91;1815192;76;20915;-86
2022/12/21 13:24:25;;;;;;;12.98;9.35;;;;;;;4.14;70.26;101525.50;1815637;78;21126;-86
2022/12/21 13:26:55;;;;;;;15.25;9.00;;;;;;;4.15;70.53;101525.91;1806132;78;20848;-87
2022/12/21 13:29:41;;;;;;;14.10;8.23;;;;;;;4.11;70.78;101525.55;1799066;77;20895;-86
2022/12/21 13:32:15;;;;;;;14.13;8.98;;;;;;;4.09;70.98;101532.50;1815728;77;21132;-86
2022/12/21 13:34:56;;;;;;;14.75;10.38;;;;;;;4.06;71.08;101521.73;1817284;76;20867;-85
2022/12/21 13:37:23;;;;;;;18.32;11.60;;;;;;;4.07;71.20;101514.80;1815302;77;21149;-86
2022/12/21 13:40:04;;;;;;;17.70;9.78;;;;;;;4.05;71.25;101505.77;1812760;78;20906;-86
2022/12/21 13:42:42;;;;;;;19.35;10.20;;;;;;;4.01;71.35;101501.52;1813471;78;20930;-85
2022/12/21 13:45:43;;;;;;;16.87;10.10;;;;;;;3.93;71.49;101502.97;1816276;77;20943;-87
2022/12/21 17:56:37;;;;;;;26.10;15.58;;;;;;;2.33;89.78;101523.87;1660577;84;21056;-86
2022/12/21 17:59:04;;;;;;;21.50;16.07;;;;;;;2.31;89.62;101517.00;1653906;86;20997;-87
2022/12/21 18:01:32;;;;;;;23.12;15.13;;;;;;;2.28;89.47;101520.48;1651898;85;20974;-87
2022/12/21 18:03:58;;;;;;;20.48;14.65;;;;;;;2.26;89.39;101511.87;1595023;85;21209;-86
2022/12/21 18:06:26;;;;;;;20.90;14.25;;;;;;;2.23;89.24;101502.42;1654261;85;20935;-89
2022/12/21 18:08:53;;;;;;;19.32;13.85;;;;;;;2.18;89.29;101502.92;1640350;86;21035;-86
2022/12/21 18:11:22;;;;;;;25.62;15.78;;;;;;;2.15;89.41;101500.34;1629401;86;21041;-88
2022/12/21 18:13:52;;;;;;;23.87;15.88;;;;;;;2.11;89.62;101501.25;1642302;85;20943;-86
2022/12/21 18:16:30;;;;;;;23.65;16.73;;;;;;;2.10;89.77;101491.79;1641592;85;21352;-86
2022/12/21 18:18:57;;;;;;;26.15;17.92;;;;;;;2.10;89.93;101487.06;1643216;86;21019;-85
2022/12/21 18:21:24;;;;;;;34.63;18.90;;;;;;;2.13;90.09;101483.12;1644149;86;20978;-86
2022/12/21 18:23:55;;;;;;;27.10;16.60;;;;;;;2.15;90.02;101482.23;1640157;85;20999;-88
2022/12/21 18:26:22;;;;;;;25.17;14.73;;;;;;;2.16;89.96;101479.23;1633032;85;21536;-88
2022/12/21 18:28:52;;;;;;;21.05;14.23;;;;;;;2.19;89.81;101472.72;1643804;86;21232;-87
2022/12/21 18:31:22;;;;;;;18.73;12.88;;;;;;;2.22;89.76;101480.44;1638852;86;20923;-88
2022/12/21 18:33:57;;;;;;;21.97;14.30;;;;;;;2.25;89.85;101468.77;1641519;85;20927;-87
2022/12/21 18:36:31;;;;;;;17.67;11.55;;;;;;;2.28;89.84;101460.52;1640225;86;21026;-89
2022/12/21 18:38:59;;;;;;;25.20;13.18;;;;;;;2.33;89.95;101472.55;1616452;86;26595;-88
2022/12/21 18:41:26;;;;;;;20.32;13.48;;;;;;;2.37;89.83;101462.58;1617892;87;22052;-85
2022/12/21 18:43:53;;;;;;;21.12;13.55;;;;;;;2.38;89.60;101457.40;1614892;86;21015;-86
2022/12/21 18:46:33;;;;;;;22.32;13.85;;;;;;;2.38;89.41;101449.63;1642381;86;21020;-87
2022/12/21 18:49:05;;;;;;;22.32;13.28;;;;;;;2.39;89.24;101454.36;1641877;86;21470;-87
2022/12/21 18:51:36;;;;;;;25.43;15.70;;;;;;;2.40;88.92;101456.06;1638997;86;21365;-90
2022/12/21 18:54:06;;;;;;;27.05;16.85;;;;;;;2.40;88.68;101456.06;1617913;86;21277;-89
2022/12/21 18:56:36;;;;;;;23.27;14.98;;;;;;;2.39;88.74;101446.59;1635741;86;21161;-89
2022/12/21 18:59:02;;;;;;;24.55;16.50;;;;;;;2.36;88.81;101441.03;1640651;86;21081;-88
2022/12/21 19:01:31;;;;;;;21.17;15.70;;;;;;;2.34;88.87;101443.22;1645584;86;20955;-89
2022/12/21 19:03:58;;;;;;;24.45;15.80;;;;;;;2.31;89.00;101445.38;1641944;86;20947;-87
2022/12/21 19:06:28;;;;;;;26.33;16.32;;;;;;;2.30;89.00;101450.60;1644003;85;21853;-88
2022/12/21 19:09:05;;;;;;;19.62;14.15;;;;;;;2.26;88.96;101445.45;1636677;86;20904;-86
2022/12/21 19:11:32;;;;;;;23.60;16.00;;;;;;;2.21;88.85;101444.66;1641432;86;21323;-87
2022/12/21 19:14:00;;;;;;;18.30;14.50;;;;;;;2.15;88.89;101449.89;1636057;86;21452;-88
2022/12/21 19:16:29;;;;;;;24.70;15.08;;;;;;;2.10;89.20;101449.55;1637162;86;20999;-88
2022/12/21 19:18:56;;;;;;;26.87;17.85;;;;;;;2.07;89.50;101439.65;1637006;86;21178;-86
2022/12/21 19:21:31;;;;;;;25.52;17.02;;;;;;;2.06;89.77;101444.83;1644099;86;20947;-88
2022/12/21 19:24:05;;;;;;;20.37;14.40;;;;;;;2.03;89.99;101440.55;1637369;86;21058;-87
2022/12/21 19:26:33;;;;;;;;;;;;;;;2.02;90.08;101440.56;1618735;87;20951;-89
2022/12/21 19:29:19;;;;;;;24.87;15.93;;;;;;;2.01;90.07;101447.91;1631331;86;20096;-89
2022/12/21 19:31:47;;;;;;;24.57;15.95;;;;;;;1.98;90.07;101445.34;1637831;86;21254;-89
2022/12/21 19:34:13;;;;;;;25.52;17.30;;;;;;;1.97;90.08;101443.64;1634427;86;20972;-88
2022/12/21 19:36:44;;;;;;;26.75;16.77;;;;;;;1.96;90.21;101447.13;1676104;82;21058;-90
2022/12/21 19:39:16;;;;;;;23.20;14.73;;;;;;;1.97;90.45;101444.49;1658307;84;20967;-88
2022/12/21 19:41:43;;;;;;;24.72;16.07;;;;;;;2.00;90.66;101443.19;1679388;81;20940;-87
2022/12/21 19:44:10;;;;;;;28.75;19.32;;;;;;;2.01;90.83;101440.16;1674705;81;21203;-86
2022/12/21 19:46:36;;;;;;;23.00;14.50;;;;;;;2.04;90.92;101444.84;1669272;83;21048;-85
2022/12/21 19:49:03;;;;;;;21.02;14.20;;;;;;;2.06;90.87;101448.27;1655023;84;21019;-88
2022/12/21 19:51:30;;;;;;;35.50;20.72;;;;;;;2.06;90.78;101441.80;1693451;84;21017;-89
2022/12/21 19:53:57;;;;;;;34.15;20.80;;;;;;;2.07;90.63;101431.89;1671944;83;20953;-88
2022/12/21 19:56:25;;;;;;;24.90;15.65;;;;;;;2.11;90.46;101431.84;1667155;83;21108;-88
2022/12/21 19:58:56;;;;;;;24.95;15.32;;;;;;;2.11;90.53;101435.72;1690066;83;20978;-88
2022/12/21 20:01:32;;;;;;;29.70;18.57;;;;;;;2.13;90.62;101438.70;1672845;83;20954;-88
2022/12/21 20:04:00;;;;;;;25.65;13.53;;;;;;;2.13;90.74;101433.97;1671919;83;21043;-87
2022/12/21 20:06:28;;;;;;;24.77;15.85;;;;;;;2.14;90.73;101437.00;1696171;83;20915;-87
2022/12/21 20:08:56;;;;;;;43.98;26.02;;;;;;;2.14;90.67;101435.70;1681505;84;21110;-87
2022/12/21 20:11:25;;;;;;;25.77;15.70;;;;;;;2.13;90.56;101441.30;1673714;82;20931;-87
2022/12/21 20:13:55;;;;;;;26.23;16.52;;;;;;;2.13;90.38;101440.00;1665694;83;20900;-88
2022/12/21 20:16:24;;;;;;;23.07;14.98;;;;;;;2.13;90.27;101449.05;1677312;83;20908;-87
2022/12/21 20:18:54;;;;;;;19.95;12.20;;;;;;;2.14;90.34;101449.94;1664865;82;21088;-88
2022/12/21 20:21:24;;;;;;;22.40;13.45;;;;;;;2.14;90.51;101450.78;1686864;82;21284;-88
2022/12/21 20:23:51;;;;;;;27.02;16.67;;;;;;;2.15;90.71;101446.02;1684285;84;21373;-88
2022/12/21 20:26:26;;;;;;;27.90;19.05;;;;;;;2.18;90.80;101434.77;1692030;84;20923;-88
2022/12/21 20:28:58;;;;;;;35.23;19.57;;;;;;;2.19;90.65;101426.99;1669715;84;20912;-88
2022/12/21 20:31:25;;;;;;;36.85;19.85;;;;;;;2.18;90.48;101421.41;1673044;83;21066;-88
2022/12/21 20:33:52;;;;;;;26.40;17.35;;;;;;;2.16;90.33;101428.78;1669900;83;21831;-88
2022/12/21 20:36:35;;;;;;;26.42;14.58;;;;;;;2.15;90.13;101433.52;1635914;85;21038;-87
2022/12/21 20:39:14;;;;;;;21.25;15.35;;;;;;;2.13;90.03;101428.36;1675154;83;20982;-85
2022/12/21 20:44:27;;;;;;;28.20;16.73;;;;;;;2.12;90.38;101435.71;1677708;83;21029;-87
2022/12/21 20:46:55;;;;;;;24.40;14.63;;;;;;;2.11;90.58;101432.69;1668386;84;20943;-88
2022/12/21 20:49:25;;;;;;;24.65;12.73;;;;;;;2.11;90.79;101435.72;1679939;83;20906;-87
2022/12/21 20:51:52;;;;;;;22.13;14.50;;;;;;;2.10;90.79;101431.44;1686146;82;20993;-87
2022/12/21 20:54:21;;;;;;;27.17;15.25;;;;;;;2.10;90.66;101438.75;1671437;83;21455;-88
2022/12/21 20:56:49;;;;;;;31.02;18.40;;;;;;;2.11;90.53;101437.86;1682368;83;21023;-86
2022/12/21 20:59:16;;;;;;;26.82;15.20;;;;;;;2.12;90.47;101440.88;1694410;82;21153;-87
2022/12/21 21:01:56;;;;;;;20.48;11.33;;;;;;;2.11;90.54;101440.89;1687202;83;21514;-86
2022/12/21 21:04:30;;;;;;;20.52;11.83;;;;;;;2.11;90.75;101439.60;1666252;84;20946;-86
2022/12/21 21:07:03;;;;;;;19.95;11.48;;;;;;;2.11;91.08;101443.03;1677064;83;21085;-89
2022/12/21 21:09:31;;;;;;;17.10;11.78;;;;;;;2.12;91.30;101432.28;1705943;82;20915;-89
2022/12/21 21:12:00;;;;;;;22.22;13.08;;;;;;;2.13;91.44;101445.62;1669759;83;21266;-89
2022/12/21 21:14:29;;;;;;;18.02;11.40;;;;;;;2.16;91.39;101440.42;1683040;83;20939;-89
2022/12/21 21:16:56;;;;;;;17.80;11.28;;;;;;;2.18;91.23;101437.35;1702939;83;21051;-90
2022/12/21 21:19:32;;;;;;;18.60;11.12;;;;;;;2.18;91.04;101438.65;1687268;83;20876;-88
2022/12/21 21:24:47;;;;;;;29.85;18.07;;;;;;;2.16;91.02;101433.52;1667745;83;21649;-87
2022/12/21 21:27:15;;;;;;;33.63;20.02;;;;;;;2.17;91.14;101436.95;1672269;83;21514;-86
2022/12/21 21:29:45;;;;;;;24.30;14.50;;;;;;;2.19;91.33;101436.05;1689327;83;21023;-88
2022/12/21 21:32:11;;;;;;;20.15;12.40;;;;;;;2.21;91.39;101433.01;1667677;84;21030;-88
2022/12/21 21:34:39;;;;;;;22.15;12.23;;;;;;;2.22;91.30;101436.03;1692702;84;20959;-88
2022/12/21 21:37:05;;;;;;;23.35;12.15;;;;;;;2.22;91.25;101433.86;1689161;83;21242;-87
2022/12/21 21:42:25;;;;;;;18.30;11.40;;;;;;;2.23;90.98;101440.31;1674809;83;21082;-89
2022/12/21 21:44:51;;;;;;;15.90;10.18;;;;;;;2.24;91.03;101439.43;1669701;83;21352;-86
2022/12/21 21:47:38;;;;;;;16.35;9.68;;;;;;;2.24;91.17;101440.72;1670063;83;21210;-86